Time;durP1;ratioP1;P1;durP2;ratioP2;P2;SDS_P1;SDS_P2;PMS_P1;PMS_P2;Temp;Humidity;BMP_temperature;BMP_pressure;BME280_temperature;BME280_humidity;BME280_pressure;Samples;Min_cycle;Max_cycle;Signal;HPM_P1;HPM_P2
2022/12/17 13:08:21;;;;;;;63.30;23.05;;;;;;;-0.87;97.17;102467.44;5074046;28;20040;-86
2022/12/17 13:10:52;;;;;;;65.13;23.40;;;;;;;-0.88;98.06;102458.56;5039767;28;20098;-85
2022/12/17 13:13:27;;;;;;;71.85;24.15;;;;;;;-0.88;98.46;102455.91;5073653;28;20503;-86
2022/12/17 13:16:08;;;;;;;;;;;;;;;;;;;;;
2022/12/17 13:18:39;;;;;;;61.57;21.97;;;;;;;-0.98;97.85;102461.94;5074398;28;20063;-87
2022/12/17 13:21:24;;;;;;;63.83;22.67;;;;;;;-0.98;98.19;102465.44;5055324;28;20293;-86
2022/12/17 13:23:52;;;;;;;62.92;23.13;;;;;;;-1.04;97.75;102467.69;5055200;28;20441;-86
2022/12/17 13:26:19;;;;;;;59.47;22.23;;;;;;;-1.20;97.85;102470.47;5038958;28;20034;-86
2022/12/17 13:28:54;;;;;;;70.53;24.48;;;;;;;-1.31;98.84;102461.34;5055686;28;20464;-86
2022/12/17 13:31:28;;;;;;;64.70;23.03;;;;;;;-1.34;98.88;102458.88;5055674;28;20037;-86
2022/12/17 13:34:08;;;;;;;71.47;23.73;;;;;;;-1.49;99.79;102457.19;5055033;28;20301;-86
2022/12/17 13:36:45;;;;;;;67.15;22.90;;;;;;;-1.51;100.00;102457.28;5055464;28;20021;-86
2022/12/17 13:39:44;;;;;;;64.82;21.70;;;;;;;-1.56;99.76;102459.41;5072218;28;20397;-86
2022/12/17 13:42:29;;;;;;;68.32;23.45;;;;;;;-1.62;100.00;102454.47;5054775;28;20043;-85
2022/12/17 13:44:56;;;;;;;71.07;24.50;;;;;;;-1.60;100.00;102455.22;5038550;28;20033;-85
2022/12/17 13:47:33;;;;;;;74.07;23.55;;;;;;;-1.64;100.00;102461.66;5073354;28;20797;-86
2022/12/17 13:50:01;;;;;;;63.50;23.30;;;;;;;-1.67;100.00;102460.09;5054988;28;20021;-86
2022/12/17 13:52:29;;;;;;;71.45;23.80;;;;;;;-1.78;100.00;102458.06;5054897;28;20395;-86
2022/12/17 13:55:06;;;;;;;66.72;22.85;;;;;;;-1.83;100.00;102453.97;5054932;28;20044;-86
2022/12/17 13:57:34;;;;;;;74.53;23.43;;;;;;;-1.91;100.00;102459.78;5055595;28;20483;-86
2022/12/17 14:00:01;;;;;;;70.88;22.80;;;;;;;-1.84;100.00;102463.78;5056002;28;20302;-85
2022/12/17 14:02:41;;;;;;;74.28;23.15;;;;;;;-1.66;100.00;102460.94;5072966;28;20029;-86
2022/12/17 14:05:28;;;;;;;68.15;22.63;;;;;;;-1.51;100.00;102467.94;5055438;28;20135;-86
2022/12/17 14:08:01;;;;;;;63.40;21.05;;;;;;;-1.45;100.00;102461.38;5054687;28;20086;-86
2022/12/17 14:10:28;;;;;;;66.17;23.23;;;;;;;-1.43;100.00;102462.16;5055202;28;20085;-86
2022/12/17 14:13:10;;;;;;;65.50;20.50;;;;;;;-1.56;99.85;102455.91;5054824;28;20766;-86
2022/12/17 14:15:43;;;;;;;65.25;22.05;;;;;;;-1.73;100.00;102463.09;5055397;28;20554;-85
2022/12/17 14:18:15;;;;;;;66.28;22.50;;;;;;;-1.71;100.00;102463.88;5054739;28;20508;-85
2022/12/17 14:20:41;;;;;;;67.47;21.73;;;;;;;-1.66;100.00;102474.22;5055339;28;20086;-86
2022/12/17 14:23:18;;;;;;;70.77;23.90;;;;;;;-1.64;100.00;102464.34;5072626;28;20036;-85
2022/12/17 14:25:43;;;;;;;67.68;22.63;;;;;;;-1.53;100.00;102472.50;5054830;28;20025;-85
2022/12/17 14:28:32;;;;;;;65.00;22.10;;;;;;;-1.37;100.00;102468.88;5054625;28;20035;-85
2022/12/17 14:31:05;;;;;;;66.28;22.15;;;;;;;-1.25;100.00;102468.94;5055652;28;20033;-85
2022/12/17 14:33:34;;;;;;;68.32;22.05;;;;;;;-1.20;100.00;102465.13;5055073;28;20460;-86
2022/12/17 14:36:13;;;;;;;68.68;22.35;;;;;;;-1.17;100.00;102473.78;5054902;28;20491;-89
2022/12/17 14:38:38;;;;;;;63.90;21.20;;;;;;;-1.14;99.30;102478.91;5054896;28;20082;-85
2022/12/17 14:44:03;;;;;;;64.72;21.02;;;;;;;-1.10;99.85;102479.59;5073476;28;20055;-85
2022/12/17 14:46:56;;;;;;;67.07;21.35;;;;;;;-1.06;99.28;102483.75;5055709;28;20240;-87
2022/12/17 14:49:24;;;;;;;67.17;19.60;;;;;;;-1.11;98.47;102494.72;5055779;28;20029;-87
2022/12/17 14:51:57;;;;;;;58.00;18.92;;;;;;;-1.18;99.11;102492.53;5058095;28;20332;-85
2022/12/17 14:54:28;;;;;;;63.13;20.00;;;;;;;-1.16;99.19;102493.31;5059627;28;20037;-83
2022/12/17 14:56:58;;;;;;;60.50;19.95;;;;;;;-1.19;98.64;102488.16;5058083;28;20043;-84
2022/12/17 14:59:39;;;;;;;67.63;20.75;;;;;;;-1.23;98.66;102490.16;5057828;28;20032;-86
2022/12/17 15:02:13;;;;;;;66.47;21.90;;;;;;;-1.29;98.35;102496.72;5075823;28;20036;-86
2022/12/17 15:04:41;;;;;;;58.20;18.42;;;;;;;-1.41;98.51;102502.84;5057800;28;20277;-87
2022/12/17 15:07:15;;;;;;;60.42;19.80;;;;;;;-1.44;98.65;102495.88;5057513;28;20071;-87
2022/12/17 15:09:41;;;;;;;62.30;20.92;;;;;;;-1.44;99.07;102501.22;5057952;28;20064;-86
2022/12/17 15:12:11;;;;;;;61.30;20.73;;;;;;;-1.49;98.90;102498.00;5057524;28;20036;-85
2022/12/17 15:14:42;;;;;;;65.83;21.70;;;;;;;-1.53;98.95;102500.94;5041116;28;20036;-85
2022/12/17 15:17:18;;;;;;;;;;;;;;;;;;;;;
2022/12/17 15:19:49;;;;;;;62.47;19.50;;;;;;;-1.59;99.73;102508.34;5076463;28;20055;-88
2022/12/17 15:22:18;;;;;;;70.20;21.33;;;;;;;-1.63;98.98;102512.16;5075475;28;20024;-86
2022/12/17 15:24:46;;;;;;;66.45;20.30;;;;;;;-1.65;99.65;102526.53;5057240;28;20040;-88
2022/12/17 15:27:17;;;;;;;72.23;22.93;;;;;;;-1.80;99.09;102526.50;5058183;28;20198;-85
2022/12/17 15:29:45;;;;;;;68.05;22.23;;;;;;;-1.96;99.75;102523.91;5042205;28;20295;-85
2022/12/17 15:32:19;;;;;;;68.30;21.15;;;;;;;-2.03;100.00;102527.88;5057490;28;20029;-85
2022/12/17 15:34:45;;;;;;;66.68;20.40;;;;;;;-2.08;100.00;102529.97;5040718;28;20045;-84
2022/12/17 15:37:11;;;;;;;65.55;21.38;;;;;;;-2.06;100.00;102532.53;5057538;28;20102;-85
2022/12/17 15:39:47;;;;;;;64.13;21.42;;;;;;;-2.01;100.00;102525.13;5057194;28;20063;-86
2022/12/17 15:44:59;;;;;;;67.70;21.27;;;;;;;-1.87;100.00;102532.28;5060482;28;20515;-86
2022/12/17 15:47:27;;;;;;;69.77;21.50;;;;;;;-1.82;100.00;102532.84;5057059;28;20068;-86
2022/12/17 15:49:55;;;;;;;68.95;21.77;;;;;;;-1.81;100.00;102537.25;5040283;28;20490;-84
2022/12/17 15:52:25;;;;;;;65.38;21.42;;;;;;;-1.86;100.00;102540.19;5057844;28;20128;-85
2022/12/17 15:54:56;;;;;;;72.83;21.87;;;;;;;-1.88;100.00;102541.22;5075426;28;20029;-84
2022/12/17 15:57:44;;;;;;;72.32;22.63;;;;;;;-1.85;100.00;102549.84;5057262;28;20337;-85
2022/12/17 16:00:17;;;;;;;75.03;22.85;;;;;;;-1.98;100.00;102544.44;5041105;28;20144;-86
2022/12/17 16:02:43;;;;;;;72.35;22.80;;;;;;;-2.20;100.00;102554.63;5056441;28;20036;-85
2022/12/17 16:05:11;;;;;;;71.20;23.70;;;;;;;-2.40;100.00;102561.09;5056504;28;20071;-86
2022/12/17 16:07:37;;;;;;;68.78;22.75;;;;;;;-2.53;100.00;102567.09;5056576;28;20106;-85
2022/12/17 16:10:08;;;;;;;72.00;22.25;;;;;;;-2.60;100.00;102567.56;5056375;28;20032;-85
2022/12/17 16:12:37;;;;;;;76.32;22.52;;;;;;;-2.72;100.00;102569.09;5056532;28;20028;-86
2022/12/17 16:15:06;;;;;;;78.80;23.00;;;;;;;-2.90;100.00;102557.72;5057007;28;20368;-85
2022/12/17 16:17:35;;;;;;;163.02;57.90;;;;;;;-2.91;100.00;102553.34;5057841;28;20102;-86
2022/12/17 16:20:02;;;;;;;109.25;35.20;;;;;;;-2.88;100.00;102555.81;5056785;28;20464;-85
2022/12/17 16:22:49;;;;;;;;;;;;;;;;;;;;;
2022/12/17 16:25:17;;;;;;;81.60;23.90;;;;;;;-2.70;100.00;102556.56;5046014;28;20273;-86
2022/12/17 16:27:47;;;;;;;77.05;22.88;;;;;;;-2.64;100.00;102558.91;5056261;28;20066;-85
2022/12/17 16:30:13;;;;;;;71.93;21.98;;;;;;;-2.59;100.00;102559.50;5040063;28;20042;-86
2022/12/17 16:32:38;;;;;;;77.27;23.33;;;;;;;-2.65;100.00;102555.38;5056118;28;20024;-86
2022/12/17 16:35:07;;;;;;;71.47;21.63;;;;;;;-2.71;100.00;102558.38;5056519;28;20028;-85
2022/12/17 16:37:36;;;;;;;82.30;23.02;;;;;;;-2.67;100.00;102559.09;5040920;28;20665;-84
2022/12/17 16:40:04;;;;;;;76.18;22.75;;;;;;;-2.57;100.00;102556.75;5074074;28;20028;-85
2022/12/17 16:42:30;;;;;;;77.97;23.58;;;;;;;-2.50;100.00;102556.31;5073924;28;20385;-85
2022/12/17 16:44:57;;;;;;;76.10;23.50;;;;;;;-2.44;100.00;102549.78;5055978;28;20027;-85
2022/12/17 16:47:25;;;;;;;75.32;23.15;;;;;;;-2.40;100.00;102548.66;5055942;28;20468;-85
2022/12/17 16:50:00;;;;;;;76.20;23.30;;;;;;;-2.34;100.00;102553.63;5073653;28;20159;-84
2022/12/17 16:52:32;;;;;;;77.88;22.30;;;;;;;-2.28;100.00;102547.09;5056086;28;20054;-85
2022/12/17 16:54:57;;;;;;;78.20;22.43;;;;;;;-2.18;100.00;102560.72;5039733;28;20086;-85
2022/12/17 16:57:28;;;;;;;76.15;23.27;;;;;;;-2.16;100.00;102569.44;5073933;28;20392;-85
2022/12/17 16:59:54;;;;;;;76.40;23.40;;;;;;;-2.19;100.00;102565.16;5056493;28;20035;-85
2022/12/17 17:02:19;;;;;;;78.03;23.73;;;;;;;-2.36;100.00;102559.97;5055660;28;20024;-85
2022/12/17 17:04:45;;;;;;;78.07;22.50;;;;;;;-2.52;100.00;102562.66;5055986;28;20490;-85
2022/12/17 17:07:13;;;;;;;79.73;23.13;;;;;;;-2.67;100.00;102561.75;5055699;28;20101;-85
2022/12/17 17:09:39;;;;;;;73.88;21.85;;;;;;;-2.74;100.00;102566.53;5039723;28;20024;-85
2022/12/17 17:12:12;;;;;;;79.37;22.83;;;;;;;-2.72;100.00;102559.31;5064123;28;20054;-85
2022/12/17 17:14:39;;;;;;;74.55;21.98;;;;;;;-2.68;100.00;102566.19;5062384;28;20380;-84
2022/12/17 17:17:04;;;;;;;72.55;21.48;;;;;;;-2.66;100.00;102566.09;5055727;28;20093;-85
2022/12/17 17:19:40;;;;;;;74.67;20.73;;;;;;;-2.64;100.00;102566.88;5055375;28;20419;-84
2022/12/17 17:22:05;;;;;;;77.57;21.85;;;;;;;-2.66;100.00;102577.59;5055417;28;20029;-84
2022/12/17 17:24:34;;;;;;;77.87;21.97;;;;;;;-2.66;100.00;102580.25;5055336;28;20051;-85
2022/12/17 17:26:59;;;;;;;74.75;23.05;;;;;;;-2.75;100.00;102586.06;5056213;28;20271;-84
2022/12/17 17:29:30;;;;;;;71.75;21.60;;;;;;;-2.77;100.00;102590.63;5039047;28;20078;-84
2022/12/17 17:31:56;;;;;;;74.70;20.92;;;;;;;-2.74;100.00;102584.28;5055640;28;20032;-85
2022/12/17 17:34:21;;;;;;;72.80;22.30;;;;;;;-2.83;100.00;102585.66;5073396;28;20021;-84
2022/12/17 17:36:47;;;;;;;75.70;24.50;;;;;;;-2.97;100.00;102590.88;5055460;28;20426;-85
2022/12/17 17:39:17;;;;;;;78.10;22.77;;;;;;;-3.21;100.00;102591.25;5073701;28;20032;-85
2022/12/17 17:41:43;;;;;;;77.15;21.80;;;;;;;-3.27;100.00;102589.78;5056196;28;20029;-87
2022/12/17 17:44:12;;;;;;;86.15;22.65;;;;;;;-3.18;100.00;102591.09;5022149;28;20031;-84
2022/12/17 17:46:39;;;;;;;76.78;21.48;;;;;;;-3.03;100.00;102592.94;5055127;28;20020;-85
2022/12/17 17:49:11;;;;;;;76.28;22.73;;;;;;;-2.93;100.00;102593.25;5055330;28;20096;-85
2022/12/17 17:51:48;;;;;;;80.65;22.65;;;;;;;-2.87;100.00;102589.41;5073277;28;20029;-85
2022/12/17 17:54:13;;;;;;;81.47;22.80;;;;;;;-2.80;100.00;102585.47;5055308;28;20029;-84
2022/12/17 17:56:40;;;;;;;79.53;22.57;;;;;;;-2.74;100.00;102597.56;5055910;28;20078;-84
2022/12/17 17:59:10;;;;;;;77.05;22.88;;;;;;;-2.78;100.00;102598.69;5054886;28;20040;-84
2022/12/17 18:01:41;;;;;;;63.43;20.90;;;;;;;-2.93;100.00;102589.75;5055519;28;20028;-84
2022/12/17 18:04:13;;;;;;;61.38;19.95;;;;;;;-3.07;100.00;102591.38;5056268;28;20381;-85
2022/12/17 18:06:59;;;;;;;66.47;19.70;;;;;;;-3.12;100.00;102595.22;5054991;28;20048;-85
2022/12/17 18:09:25;;;;;;;65.93;20.48;;;;;;;-3.23;100.00;102587.84;5054484;28;20533;-85
2022/12/17 18:11:53;;;;;;;74.57;21.07;;;;;;;-3.15;100.00;102592.72;5054930;28;20032;-84
2022/12/17 18:14:21;;;;;;;74.05;22.17;;;;;;;-3.08;100.00;102594.13;5038764;28;20461;-84
2022/12/17 18:16:47;;;;;;;70.97;21.55;;;;;;;-3.03;100.00;102600.03;5054794;28;20141;-83
2022/12/17 18:19:18;;;;;;;71.95;21.73;;;;;;;-2.96;100.00;102597.91;5038499;28;20054;-84
2022/12/17 18:21:46;;;;;;;65.70;20.83;;;;;;;-3.06;100.00;102587.75;5055101;28;20036;-84
2022/12/17 18:24:22;;;;;;;70.22;20.10;;;;;;;-3.11;100.00;102594.28;5055293;28;20274;-83
2022/12/17 18:26:51;;;;;;;73.68;22.02;;;;;;;-3.14;100.00;102597.06;5076485;28;20078;-83
2022/12/17 18:29:19;;;;;;;72.15;20.35;;;;;;;-3.15;100.00;102596.22;5042453;28;20033;-83
2022/12/17 18:31:48;;;;;;;78.28;21.83;;;;;;;-3.23;100.00;102590.50;5059427;28;20173;-83
2022/12/17 18:34:19;;;;;;;79.30;21.97;;;;;;;-3.32;100.00;102597.16;5059310;28;20036;-83
2022/12/17 18:36:45;;;;;;;77.47;21.60;;;;;;;-3.37;100.00;102594.72;5058817;28;20305;-83
2022/12/17 18:39:15;;;;;;;70.10;20.90;;;;;;;-3.32;100.00;102593.63;5058299;28;20502;-84
2022/12/17 18:44:28;;;;;;;79.70;23.40;;;;;;;-3.15;100.00;102593.56;5077061;28;20043;-85
2022/12/17 18:46:57;;;;;;;87.70;23.20;;;;;;;-3.08;100.00;102599.44;5058200;28;20026;-84
2022/12/17 18:49:26;;;;;;;79.78;23.50;;;;;;;-3.06;100.00;102597.53;5058588;28;20283;-84
2022/12/17 18:51:56;;;;;;;78.45;22.73;;;;;;;-3.09;100.00;102587.09;5041857;28;20063;-84
2022/12/17 18:54:24;;;;;;;82.07;21.27;;;;;;;-3.02;100.00;102596.44;5058429;28;20033;-84
2022/12/17 18:56:52;;;;;;;83.10;23.35;;;;;;;-2.94;100.00;102596.00;5057912;28;20066;-84
2022/12/17 18:59:20;;;;;;;69.70;21.30;;;;;;;-2.91;100.00;102596.72;5058319;28;20047;-84
2022/12/17 19:01:47;;;;;;;71.88;20.15;;;;;;;-2.88;100.00;102599.19;5076112;28;20328;-84
2022/12/17 19:04:15;;;;;;;65.75;20.08;;;;;;;-2.86;100.00;102604.44;5057692;28;20028;-84
2022/12/17 19:06:42;;;;;;;69.40;20.75;;;;;;;-2.84;100.00;102608.69;5056982;28;20054;-83
2022/12/17 19:09:18;;;;;;;63.25;20.15;;;;;;;-2.83;100.00;102602.44;5057007;28;20040;-84
2022/12/17 19:11:44;;;;;;;63.43;19.60;;;;;;;-2.79;100.00;102610.25;5074459;28;20040;-84
2022/12/17 19:14:09;;;;;;;62.92;19.13;;;;;;;-2.78;100.00;102607.50;5040967;28;20283;-83
2022/12/17 19:16:35;;;;;;;65.53;20.50;;;;;;;-2.77;100.00;102611.88;5039969;28;20029;-84
2022/12/17 19:19:02;;;;;;;70.93;22.20;;;;;;;-2.77;100.00;102617.19;5056965;28;20103;-84
2022/12/17 19:21:33;;;;;;;61.15;19.88;;;;;;;-2.81;100.00;102620.94;5039933;28;20028;-84
2022/12/17 19:24:04;;;;;;;63.75;20.83;;;;;;;-2.80;100.00;102628.00;5056787;28;20035;-84
2022/12/17 19:26:34;;;;;;;63.20;20.60;;;;;;;-2.82;100.00;102630.72;5074430;28;20066;-84
2022/12/17 19:29:00;;;;;;;68.82;20.60;;;;;;;-2.82;100.00;102627.19;5040191;28;20024;-84
2022/12/17 19:31:35;;;;;;;63.40;19.10;;;;;;;-2.84;100.00;102631.75;5056102;28;20131;-84
2022/12/17 19:34:04;;;;;;;69.38;20.50;;;;;;;-2.96;100.00;102627.97;5056498;28;20313;-84
2022/12/17 19:36:34;;;;;;;66.80;21.05;;;;;;;-2.97;100.00;102628.06;5056161;28;20063;-84
2022/12/17 19:39:06;;;;;;;70.50;21.23;;;;;;;-2.92;100.00;102637.50;5056291;28;20025;-83
2022/12/17 19:41:37;;;;;;;63.15;20.63;;;;;;;-2.89;100.00;102636.47;5056466;28;20035;-84
2022/12/17 19:44:15;;;;;;;67.27;20.30;;;;;;;-2.87;100.00;102629.25;5055992;28;20020;-84
2022/12/17 19:46:43;;;;;;;66.68;22.40;;;;;;;-2.92;100.00;102626.88;5056300;28;20286;-84
2022/12/17 19:49:14;;;;;;;64.40;19.33;;;;;;;-3.01;100.00;102622.06;5056151;28;20024;-84
2022/12/17 19:51:42;;;;;;;69.22;21.90;;;;;;;-3.17;100.00;102625.53;5056991;28;20033;-84
2022/12/17 19:54:11;;;;;;;68.80;22.27;;;;;;;-3.28;100.00;102627.88;5055872;28;20033;-84
2022/12/17 19:56:37;;;;;;;70.60;23.00;;;;;;;-3.39;100.00;102624.97;5074410;28;20385;-85
2022/12/17 19:59:08;;;;;;;66.07;20.42;;;;;;;-3.52;100.00;102628.22;5022789;28;20361;-84
2022/12/17 20:01:43;;;;;;;65.33;20.00;;;;;;;-3.62;100.00;102628.78;5056229;28;20146;-84
2022/12/17 20:04:15;;;;;;;67.72;19.95;;;;;;;-3.66;100.00;102628.09;5055895;28;20267;-84
2022/12/17 20:06:41;;;;;;;65.28;19.45;;;;;;;-3.65;100.00;102629.81;5008656;28;1353067;-84
2022/12/17 20:09:08;;;;;;;66.90;20.95;;;;;;;-3.63;100.00;102632.38;5056764;28;20078;-85
2022/12/17 20:11:34;;;;;;;67.28;21.45;;;;;;;-3.65;100.00;102639.56;5040294;28;20113;-84
2022/12/17 20:14:00;;;;;;;72.33;21.03;;;;;;;-3.61;100.00;102649.94;5056849;28;20482;-84
2022/12/17 20:16:26;;;;;;;66.72;20.98;;;;;;;-3.58;100.00;102649.78;5056681;28;20368;-84
2022/12/17 20:19:01;;;;;;;;;;;;;;;;;;;;;
2022/12/17 20:21:28;;;;;;;64.63;20.10;;;;;;;-3.49;100.00;102661.72;5058567;28;20028;-84
2022/12/17 20:23:53;;;;;;;60.17;19.75;;;;;;;-3.45;100.00;102671.25;5056680;28;20119;-84
2022/12/17 20:26:19;;;;;;;59.93;18.93;;;;;;;-3.42;100.00;102656.97;5056220;28;20128;-84
2022/12/17 20:28:45;;;;;;;59.92;19.52;;;;;;;-3.38;100.00;102661.16;5056652;28;20032;-84
2022/12/17 20:31:14;;;;;;;68.20;19.42;;;;;;;-3.31;100.00;102662.56;5056259;28;20541;-84
2022/12/17 20:33:42;;;;;;;62.53;19.83;;;;;;;-3.28;100.00;102651.78;5056264;28;20086;-84
2022/12/17 20:36:10;;;;;;;61.33;20.42;;;;;;;-3.22;100.00;102648.81;5056622;28;20274;-84
2022/12/17 20:38:39;;;;;;;65.43;20.63;;;;;;;-3.16;100.00;102652.91;5056171;28;20476;-84
2022/12/17 20:41:18;;;;;;;70.13;20.92;;;;;;;-3.08;100.00;102644.56;5056667;28;20043;-84
2022/12/17 20:43:47;;;;;;;64.13;21.60;;;;;;;-3.04;100.00;102636.34;5056670;28;20038;-84
2022/12/17 20:46:13;;;;;;;72.27;21.57;;;;;;;-2.97;100.00;102636.88;5056350;28;20060;-84
2022/12/17 20:48:40;;;;;;;65.47;20.23;;;;;;;-2.94;100.00;102638.50;5073744;28;20300;-84
2022/12/17 20:51:19;;;;;;;62.00;19.80;;;;;;;-2.91;100.00;102638.34;5040668;28;20052;-84
2022/12/17 20:53:46;;;;;;;59.38;19.85;;;;;;;-2.92;100.00;102645.47;5056146;28;20056;-84
2022/12/17 20:56:15;;;;;;;59.03;19.77;;;;;;;-2.92;100.00;102633.94;5056306;28;20086;-84
2022/12/17 20:58:41;;;;;;;61.70;18.73;;;;;;;-3.00;100.00;102634.38;5039757;28;20328;-84
2022/12/17 21:01:10;;;;;;;60.92;19.55;;;;;;;-3.03;100.00;102642.50;5074819;28;20040;-85
2022/12/17 21:03:36;;;;;;;61.70;19.30;;;;;;;-3.04;100.00;102636.34;5055598;28;20039;-84
2022/12/17 21:06:06;;;;;;;56.90;20.15;;;;;;;-2.99;100.00;102646.72;5038858;28;20123;-84
2022/12/17 21:08:32;;;;;;;62.20;20.35;;;;;;;-3.00;100.00;102647.66;5073897;28;20028;-84
2022/12/17 21:11:01;;;;;;;56.97;20.20;;;;;;;-2.97;100.00;102641.34;5055428;28;20048;-84
2022/12/17 21:13:29;;;;;;;61.00;19.20;;;;;;;-2.95;100.00;102634.13;5055810;28;20082;-84
2022/12/17 21:16:00;;;;;;;59.55;20.02;;;;;;;-2.96;100.00;102641.25;5056465;28;20031;-84
2022/12/17 21:18:28;;;;;;;57.65;20.17;;;;;;;-2.97;100.00;102647.50;5055356;28;20456;-84
2022/12/17 21:21:07;;;;;;;59.85;18.95;;;;;;;-3.00;100.00;102642.34;5055445;28;20031;-84
2022/12/17 21:23:35;;;;;;;56.58;18.63;;;;;;;-3.04;100.00;102649.63;5055589;28;20039;-84
2022/12/17 21:26:05;;;;;;;57.77;19.00;;;;;;;-3.06;100.00;102646.19;5055693;28;20127;-84
2022/12/17 21:28:32;;;;;;;56.42;18.20;;;;;;;-3.06;100.00;102650.66;5073334;28;20033;-84
2022/12/17 21:31:02;;;;;;;55.75;19.65;;;;;;;-3.07;100.00;102655.13;5055674;28;20085;-84
2022/12/17 21:33:34;;;;;;;60.33;18.75;;;;;;;-3.08;100.00;102658.69;5055789;28;20028;-84
2022/12/17 21:36:04;;;;;;;57.42;18.77;;;;;;;-3.10;100.00;102654.41;5055638;28;20083;-83
2022/12/17 21:38:30;;;;;;;57.63;18.50;;;;;;;-3.13;100.00;102654.56;5056007;28;20106;-84
2022/12/17 21:41:03;;;;;;;57.80;18.52;;;;;;;-3.17;100.00;102651.22;5055877;28;20036;-85
2022/12/17 21:43:28;;;;;;;56.15;18.80;;;;;;;-3.19;100.00;102653.09;5055928;28;20103;-84
2022/12/17 21:45:58;;;;;;;57.13;18.40;;;;;;;-3.22;100.00;102659.44;5055217;28;20429;-84
2022/12/17 21:48:23;;;;;;;55.40;18.02;;;;;;;-3.26;100.00;102665.84;5055578;28;20035;-84
2022/12/17 21:50:49;;;;;;;56.38;18.20;;;;;;;-3.29;100.00;102658.03;5055023;28;20029;-84
2022/12/17 21:53:14;;;;;;;54.03;18.97;;;;;;;-3.33;100.00;102660.94;5055323;28;20028;-83
2022/12/17 21:55:40;;;;;;;54.57;17.67;;;;;;;-3.39;100.00;102665.63;5055342;28;20067;-84
2022/12/17 21:58:07;;;;;;;57.67;18.73;;;;;;;-3.42;100.00;102673.75;5055080;28;20119;-84
2022/12/17 22:00:35;;;;;;;56.65;19.05;;;;;;;-3.47;100.00;102672.25;5076089;28;20033;-84
2022/12/17 22:03:01;;;;;;;61.00;18.67;;;;;;;-3.52;100.00;102669.84;5060298;28;20036;-84
2022/12/17 22:05:27;;;;;;;48.83;17.27;;;;;;;-3.57;100.00;102672.75;5077087;28;20480;-83
2022/12/17 22:07:53;;;;;;;56.22;18.80;;;;;;;-3.61;100.00;102673.81;5077980;28;20048;-85
2022/12/17 22:10:19;;;;;;;63.33;19.03;;;;;;;-3.63;100.00;102674.81;5042688;28;20119;-85
2022/12/17 22:15:29;;;;;;;49.40;17.63;;;;;;;-3.73;100.00;102685.06;5077915;28;20139;-84
2022/12/17 22:17:55;;;;;;;56.70;17.90;;;;;;;-3.76;100.00;102693.19;5026205;28;20469;-85
2022/12/17 22:20:21;;;;;;;55.45;18.38;;;;;;;-3.79;100.00;102691.53;5025678;28;20548;-84
2022/12/17 22:22:50;;;;;;;53.83;17.45;;;;;;;-3.84;100.00;102704.16;5042379;28;20090;-84
2022/12/17 22:25:15;;;;;;;51.97;17.65;;;;;;;-3.88;100.00;102697.31;5042754;28;20047;-84
2022/12/17 22:27:41;;;;;;;49.53;18.53;;;;;;;-3.93;100.00;102708.09;5026940;28;20453;-84
2022/12/17 22:32:59;;;;;;;42.80;15.77;;;;;;;-4.05;100.00;102704.25;5077002;28;20047;-86
2022/12/17 22:35:26;;;;;;;48.03;17.02;;;;;;;-4.15;100.00;102692.41;5042175;28;20028;-86
2022/12/17 22:37:56;;;;;;;44.65;16.15;;;;;;;-4.20;100.00;102697.06;5042007;28;20117;-87
2022/12/17 22:40:25;;;;;;;49.08;18.48;;;;;;;-4.25;100.00;102701.75;5058987;28;20033;-87
2022/12/17 22:45:40;;;;;;;47.00;16.93;;;;;;;-4.36;100.00;102685.47;5062097;28;20051;-86
2022/12/17 22:48:10;;;;;;;53.50;17.92;;;;;;;-4.43;100.00;102683.13;5058252;28;20032;-86
2022/12/17 22:50:39;;;;;;;51.13;17.05;;;;;;;-4.49;100.00;102685.19;5042749;28;20127;-87
2022/12/17 22:53:08;;;;;;;54.40;17.45;;;;;;;-4.52;100.00;102685.34;5042133;28;20040;-86
2022/12/17 22:55:34;;;;;;;55.42;18.05;;;;;;;-4.61;100.00;102684.81;5075985;28;20392;-86
2022/12/17 22:58:02;;;;;;;50.97;17.70;;;;;;;-4.65;100.00;102691.22;5058030;28;20487;-87
2022/12/17 23:00:36;;;;;;;51.60;18.15;;;;;;;-4.69;100.00;102686.97;5041545;28;20047;-86
2022/12/17 23:03:06;;;;;;;52.70;17.98;;;;;;;-4.72;100.00;102689.78;5058670;28;20033;-86
2022/12/17 23:05:32;;;;;;;52.67;18.10;;;;;;;-4.77;100.00;102694.41;5058342;28;20028;-86
2022/12/17 23:08:07;;;;;;;50.78;18.17;;;;;;;-4.80;100.00;102695.44;5058161;28;20295;-87
2022/12/17 23:10:32;;;;;;;51.20;18.17;;;;;;;-4.87;100.00;102690.47;5058461;28;20090;-86
2022/12/17 23:13:03;;;;;;;51.13;18.10;;;;;;;-4.98;100.00;102689.16;5058120;28;20032;-86
2022/12/17 23:15:34;;;;;;;53.20;17.25;;;;;;;-5.06;100.00;102671.88;5042387;28;20106;-87
2022/12/17 23:18:04;;;;;;;53.40;17.08;;;;;;;-5.10;100.00;102668.53;5057819;28;20043;-86
2022/12/17 23:20:33;;;;;;;47.60;17.88;;;;;;;-5.10;100.00;102663.25;5057951;28;20115;-86
2022/12/17 23:23:02;;;;;;;47.37;16.30;;;;;;;-5.12;100.00;102654.53;5057784;28;20028;-87
2022/12/17 23:25:31;;;;;;;49.33;17.85;;;;;;;-5.13;100.00;102656.28;5057867;28;20286;-86
2022/12/17 23:27:57;;;;;;;48.92;17.88;;;;;;;-5.13;100.00;102660.72;5075627;28;20060;-86
2022/12/17 23:30:22;;;;;;;50.70;17.17;;;;;;;-5.16;100.00;102667.00;5040963;28;20085;-86
2022/12/17 23:32:48;;;;;;;53.25;17.80;;;;;;;-5.19;100.00;102664.50;5075612;28;20801;-86
2022/12/17 23:35:16;;;;;;;50.67;17.47;;;;;;;-5.21;100.00;102665.50;5057461;28;20384;-85
2022/12/17 23:38:07;;;;;;;50.30;19.38;;;;;;;-5.24;100.00;102669.16;5057786;28;20388;-87
2022/12/17 23:40:33;;;;;;;46.20;17.48;;;;;;;-5.28;100.00;102668.41;5057279;28;20045;-86
2022/12/17 23:43:04;;;;;;;49.63;17.60;;;;;;;-5.30;100.00;102669.41;5057228;28;20506;-86
2022/12/17 23:45:32;;;;;;;47.88;18.02;;;;;;;-5.32;100.00;102674.75;5057912;28;20036;-86
2022/12/17 23:48:07;;;;;;;50.25;18.50;;;;;;;-5.37;100.00;102668.84;5057194;28;20036;-86
2022/12/17 23:50:44;;;;;;;51.60;18.08;;;;;;;-5.38;100.00;102679.47;5041671;28;20060;-87
2022/12/17 23:53:12;;;;;;;57.40;18.70;;;;;;;-5.42;100.00;102688.47;5040729;28;20055;-87
2022/12/17 23:55:55;;;;;;;46.35;17.08;;;;;;;-5.46;100.00;102688.59;5056917;28;20032;-87
2022/12/17 23:58:23;;;;;;;51.75;18.05;;;;;;;-5.49;100.00;102686.09;5041400;28;20491;-86
